Time;durP1;ratioP1;P1;durP2;ratioP2;P2;SDS_P1;SDS_P2;PMS_P1;PMS_P2;Temp;Humidity;BMP_temperature;BMP_pressure;BME280_temperature;BME280_humidity;BME280_pressure;Samples;Min_cycle;Max_cycle;Signal;HPM_P1;HPM_P2
2023/08/19 00:01:12;;;;;;;10.52;9.63;;;27.20;63.20;;;;;;5009674;28;20120;-52
2023/08/19 00:03:48;;;;;;;11.07;9.90;;;27.10;63.20;;;;;;5010914;28;20409;-51
2023/08/19 00:06:49;;;;;;;11.45;10.38;;;27.10;63.10;;;;;;5010631;28;20053;-48
2023/08/19 00:09:15;;;;;;;10.30;9.27;;;27.10;63.30;;;;;;5009744;28;20065;-49
2023/08/19 00:11:43;;;;;;;10.25;9.35;;;27.10;63.10;;;;;;5009916;28;20591;-49
2023/08/19 00:14:10;;;;;;;9.45;8.63;;;27.00;63.10;;;;;;5011171;28;20033;-50
2023/08/19 00:16:36;;;;;;;10.23;8.80;;;26.90;63.00;;;;;;5009305;28;20770;-48
2023/08/19 00:19:08;;;;;;;9.32;8.35;;;26.90;63.10;;;;;;5010719;28;20046;-49
2023/08/19 00:21:35;;;;;;;9.60;8.85;;;26.90;63.10;;;;;;5009585;28;20053;-48
2023/08/19 00:24:02;;;;;;;9.52;8.73;;;26.80;63.00;;;;;;5011215;28;20042;-51
2023/08/19 00:26:32;;;;;;;9.57;8.07;;;26.80;63.10;;;;;;5008858;28;20052;-49
2023/08/19 00:29:05;;;;;;;9.13;8.27;;;26.80;63.00;;;;;;5009332;28;20038;-52
2023/08/19 00:31:34;;;;;;;9.15;7.97;;;26.70;63.00;;;;;;5006831;28;20046;-51
2023/08/19 00:34:00;;;;;;;9.80;8.15;;;26.60;63.10;;;;;;5011124;28;20046;-50
2023/08/19 00:36:27;;;;;;;8.73;7.78;;;26.60;63.10;;;;;;4992476;28;20593;-50
2023/08/19 00:38:59;;;;;;;8.43;7.72;;;26.60;63.20;;;;;;4991603;28;20508;-48
2023/08/19 00:41:26;;;;;;;8.43;7.63;;;26.60;63.20;;;;;;4991694;28;20654;-49
2023/08/19 00:43:54;;;;;;;8.85;7.95;;;26.50;63.20;;;;;;4993470;28;20121;-51
2023/08/19 00:46:21;;;;;;;9.30;8.55;;;26.50;63.40;;;;;;4991762;28;20042;-54
2023/08/19 00:48:51;;;;;;;9.32;8.50;;;26.40;63.50;;;;;;5010037;28;20038;-49
2023/08/19 00:51:20;;;;;;;9.75;8.30;;;26.40;63.80;;;;;;4990529;28;20073;-50
2023/08/19 00:53:53;;;;;;;9.70;8.70;;;26.40;63.60;;;;;;5009573;28;20052;-49
2023/08/19 00:56:20;;;;;;;8.35;7.63;;;26.40;64.60;;;;;;5001529;28;20046;-50
2023/08/19 00:58:49;;;;;;;9.85;8.30;;;26.30;63.80;;;;;;4990034;28;20544;-51
2023/08/19 01:01:16;;;;;;;9.30;8.20;;;26.30;63.70;;;;;;5007003;28;20074;-49
2023/08/19 01:03:45;;;;;;;10.50;8.20;;;26.30;63.80;;;;;;5009512;28;20046;-49
2023/08/19 01:06:24;;;;;;;8.88;8.10;;;26.30;64.30;;;;;;4992305;28;20048;-53
2023/08/19 01:09:10;;;;;;;10.18;8.00;;;26.20;64.60;;;;;;5008861;28;20112;-53
2023/08/19 01:11:52;;;;;;;8.60;7.82;;;26.30;64.80;;;;;;4975691;28;20053;-49
2023/08/19 01:14:57;;;;;;;8.52;7.45;;;26.20;64.70;;;;;;5008890;28;20061;-53
2023/08/19 01:17:28;;;;;;;9.25;7.45;;;26.20;64.80;;;;;;4989756;28;20041;-49
2023/08/19 01:19:57;;;;;;;10.23;8.23;;;26.20;64.50;;;;;;4988404;28;20133;-48
2023/08/19 01:23:02;;;;;;;7.97;7.28;;;26.20;64.40;;;;;;5006719;28;20042;-48
2023/08/19 01:25:31;;;;;;;8.77;7.63;;;26.20;64.80;;;;;;5009085;28;20057;-51
2023/08/19 01:28:03;;;;;;;7.95;7.15;;;26.20;64.60;;;;;;4991633;28;20447;-48
2023/08/19 01:30:36;;;;;;;8.18;7.43;;;26.20;64.90;;;;;;5006333;28;20057;-54
2023/08/19 01:33:03;;;;;;;8.73;7.18;;;26.20;64.90;;;;;;4981098;28;20049;-51
2023/08/19 01:36:03;;;;;;;9.95;7.75;;;26.20;64.90;;;;;;5007439;28;20041;-50
2023/08/19 01:38:41;;;;;;;8.48;7.72;;;26.20;65.60;;;;;;5007624;28;20068;-51
2023/08/19 01:41:15;;;;;;;7.73;7.10;;;26.20;65.60;;;;;;4991378;28;20045;-49
2023/08/19 01:43:48;;;;;;;9.80;7.22;;;26.20;65.40;;;;;;5009927;28;20108;-54
2023/08/19 01:46:15;;;;;;;7.88;7.07;;;26.20;66.30;;;;;;4991788;28;20096;-52
2023/08/19 01:48:42;;;;;;;8.23;7.53;;;26.20;65.60;;;;;;4995952;28;20046;-54
2023/08/19 01:51:09;;;;;;;9.82;7.53;;;26.20;65.60;;;;;;4997555;28;20049;-50
2023/08/19 01:53:38;;;;;;;8.60;7.70;;;26.20;65.70;;;;;;4998445;28;20067;-49
2023/08/19 01:56:08;;;;;;;9.70;7.18;;;26.20;65.70;;;;;;5016050;28;20530;-53
2023/08/19 01:58:34;;;;;;;7.07;6.40;;;26.20;65.80;;;;;;4993690;28;20657;-52
2023/08/19 02:01:04;;;;;;;7.10;6.50;;;26.20;65.90;;;;;;5012708;28;20070;-49
2023/08/19 02:03:31;;;;;;;8.07;7.22;;;26.20;66.10;;;;;;5015882;28;20057;-54
2023/08/19 02:06:00;;;;;;;8.23;7.38;;;26.20;65.90;;;;;;4998156;28;20065;-53
2023/08/19 02:08:26;;;;;;;9.02;6.50;;;26.20;66.00;;;;;;5014399;28;20054;-54
2023/08/19 02:10:54;;;;;;;6.80;6.15;;;26.20;66.00;;;;;;5009239;28;20591;-53
2023/08/19 02:13:21;;;;;;;9.23;7.20;;;26.20;66.00;;;;;;5014068;28;20397;-54
2023/08/19 02:15:49;;;;;;;7.32;6.68;;;26.20;66.00;;;;;;4996603;28;20045;-52
2023/08/19 02:18:18;;;;;;;9.23;7.47;;;26.20;66.00;;;;;;4994173;28;20051;-52
2023/08/19 02:20:49;;;;;;;7.30;6.57;;;26.20;66.20;;;;;;4997333;28;20041;-49
2023/08/19 02:23:16;;;;;;;8.75;6.72;;;26.30;66.20;;;;;;4997481;28;20057;-52
2023/08/19 02:25:45;;;;;;;7.18;6.47;;;26.30;66.20;;;;;;4997123;28;20038;-54
2023/08/19 02:28:16;;;;;;;8.60;6.40;;;26.20;66.20;;;;;;4986501;28;20046;-54
2023/08/19 02:30:45;;;;;;;11.35;6.30;;;26.30;66.20;;;;;;4993121;28;20050;-54
2023/08/19 02:33:12;;;;;;;7.55;6.70;;;26.30;66.40;;;;;;5010740;28;20050;-53
2023/08/19 02:35:40;;;;;;;8.00;7.00;;;26.20;66.30;;;;;;5014821;28;20050;-48
2023/08/19 02:38:08;;;;;;;7.78;7.00;;;26.20;66.20;;;;;;4997517;28;20113;-51
2023/08/19 02:40:37;;;;;;;9.70;8.07;;;26.20;66.20;;;;;;5014601;28;20046;-50
2023/08/19 02:43:06;;;;;;;8.63;6.70;;;26.20;66.20;;;;;;5014045;28;20041;-54
2023/08/19 02:45:35;;;;;;;10.23;7.13;;;26.20;66.40;;;;;;5012930;28;20491;-48
2023/08/19 02:48:07;;;;;;;6.78;6.10;;;26.20;66.40;;;;;;5014779;28;20045;-53
2023/08/19 02:50:36;;;;;;;;;;;26.20;66.40;;;;;;4997856;28;20057;-50
2023/08/19 02:53:03;;;;;;;9.60;5.93;;;26.30;65.80;;;;;;5015543;28;19921;-49
2023/08/19 02:55:30;;;;;;;6.47;5.93;;;26.20;65.70;;;;;;5015188;28;20046;-51
2023/08/19 02:57:56;;;;;;;6.85;6.18;;;26.20;66.10;;;;;;4989580;28;20042;-51
2023/08/19 03:00:23;;;;;;;9.32;6.85;;;26.20;66.20;;;;;;5008087;28;20478;-48
2023/08/19 03:02:52;;;;;;;7.22;6.55;;;26.20;66.30;;;;;;5012286;28;20076;-51
2023/08/19 03:05:22;;;;;;;8.27;7.28;;;26.20;66.40;;;;;;4994486;28;20410;-50
2023/08/19 03:07:52;;;;;;;9.52;6.30;;;26.20;66.40;;;;;;4989308;28;20156;-50
2023/08/19 03:10:25;;;;;;;7.03;6.32;;;26.20;66.40;;;;;;5007950;28;20493;-50
2023/08/19 03:12:54;;;;;;;7.88;5.88;;;26.20;66.40;;;;;;4994573;28;20048;-52
2023/08/19 03:15:21;;;;;;;7.70;6.40;;;26.20;66.50;;;;;;5011567;28;20057;-54
2023/08/19 03:17:48;;;;;;;9.35;6.22;;;26.20;66.50;;;;;;4974221;28;20049;-49
2023/08/19 03:20:16;;;;;;;7.07;5.65;;;26.20;66.60;;;;;;4993983;28;20516;-53
2023/08/19 03:22:45;;;;;;;8.32;6.47;;;26.20;66.60;;;;;;5011951;28;20050;-53
2023/08/19 03:25:12;;;;;;;8.77;5.85;;;26.20;66.70;;;;;;5010437;28;20496;-49
2023/08/19 03:27:45;;;;;;;6.93;5.35;;;26.20;66.70;;;;;;5010232;28;20050;-53
2023/08/19 03:30:12;;;;;;;6.45;5.85;;;26.20;66.90;;;;;;4989817;28;20042;-54
2023/08/19 03:32:39;;;;;;;7.45;5.90;;;26.10;66.60;;;;;;4994394;28;20048;-53
2023/08/19 03:35:06;;;;;;;8.13;6.35;;;26.20;66.80;;;;;;4993791;28;20470;-48
2023/08/19 03:37:33;;;;;;;7.18;6.28;;;26.10;66.60;;;;;;4993031;28;20046;-50
2023/08/19 03:40:02;;;;;;;6.35;5.88;;;26.10;66.70;;;;;;4988897;28;20042;-51
2023/08/19 03:42:31;;;;;;;6.25;5.53;;;26.10;66.60;;;;;;4994348;28;20042;-50
2023/08/19 03:45:02;;;;;;;7.82;6.05;;;26.10;66.60;;;;;;4993060;28;20042;-53
2023/08/19 03:47:30;;;;;;;6.40;5.88;;;26.10;66.50;;;;;;5010157;28;20120;-54
2023/08/19 03:50:02;;;;;;;8.15;6.15;;;26.10;66.60;;;;;;5009934;28;20424;-53
2023/08/19 03:52:31;;;;;;;6.53;5.63;;;26.00;66.60;;;;;;5003349;28;20132;-53
2023/08/19 03:54:58;;;;;;;6.32;5.68;;;26.00;66.60;;;;;;5007299;28;20393;-49
2023/08/19 03:57:27;;;;;;;7.07;5.57;;;26.00;66.60;;;;;;4987284;28;20050;-51
2023/08/19 03:59:59;;;;;;;7.47;5.97;;;26.00;66.70;;;;;;4994959;28;20054;-49
2023/08/19 04:02:26;;;;;;;10.07;5.72;;;26.00;66.60;;;;;;5010022;28;20057;-53
2023/08/19 04:05:00;;;;;;;7.97;5.70;;;25.90;66.60;;;;;;4992581;28;20041;-54
2023/08/19 04:07:30;;;;;;;9.20;5.80;;;25.90;66.90;;;;;;4993433;28;20053;-54
2023/08/19 04:09:58;;;;;;;7.90;6.15;;;25.90;66.80;;;;;;5009970;28;20034;-51
2023/08/19 04:12:25;;;;;;;7.22;5.68;;;25.90;66.70;;;;;;4993369;28;20041;-53
2023/08/19 04:14:52;;;;;;;7.35;6.07;;;25.90;66.80;;;;;;4991536;28;20049;-50
2023/08/19 04:17:19;;;;;;;6.38;5.65;;;25.90;66.80;;;;;;5008670;28;20042;-51
2023/08/19 04:19:46;;;;;;;7.72;5.80;;;25.80;66.80;;;;;;5009229;28;20103;-49
2023/08/19 04:22:15;;;;;;;6.28;5.65;;;25.80;66.80;;;;;;5009204;28;20038;-52
2023/08/19 04:24:52;;;;;;;6.30;5.10;;;25.80;66.90;;;;;;5005612;28;20046;-50
2023/08/19 04:27:24;;;;;;;6.70;5.25;;;25.80;67.10;;;;;;5003739;28;20047;-51
2023/08/19 04:29:54;;;;;;;6.63;5.63;;;25.80;67.00;;;;;;4986609;28;20054;-49
2023/08/19 04:32:22;;;;;;;6.07;5.22;;;25.80;67.10;;;;;;4991119;28;20061;-49
2023/08/19 04:34:50;;;;;;;9.00;6.68;;;25.80;66.90;;;;;;4990818;28;20425;-51
2023/08/19 04:37:17;;;;;;;8.95;5.55;;;25.80;67.10;;;;;;5008671;28;20056;-52
2023/08/19 04:39:50;;;;;;;6.18;5.68;;;25.80;67.20;;;;;;5008934;28;20057;-50
2023/08/19 04:42:22;;;;;;;7.38;6.20;;;25.80;67.30;;;;;;4993648;28;20054;-49
2023/08/19 04:44:54;;;;;;;7.85;5.80;;;25.80;67.30;;;;;;4992302;28;20038;-48
2023/08/19 04:47:22;;;;;;;6.60;5.88;;;25.80;67.40;;;;;;5009492;28;20504;-48
2023/08/19 04:49:49;;;;;;;7.40;5.93;;;25.80;67.40;;;;;;4989916;28;20046;-53
2023/08/19 04:52:16;;;;;;;6.93;5.70;;;25.80;67.30;;;;;;5003115;28;20041;-53
2023/08/19 04:54:42;;;;;;;8.23;6.50;;;25.80;67.40;;;;;;4988573;28;20104;-53
2023/08/19 04:57:19;;;;;;;8.60;5.80;;;25.80;67.40;;;;;;5002114;28;20113;-49
2023/08/19 04:59:47;;;;;;;6.93;6.10;;;25.80;67.60;;;;;;4988076;28;20062;-48
2023/08/19 05:02:16;;;;;;;7.07;6.38;;;25.80;67.60;;;;;;5010879;28;20069;-49
2023/08/19 05:04:44;;;;;;;7.55;6.40;;;25.80;67.60;;;;;;4987187;28;20042;-50
2023/08/19 05:07:13;;;;;;;6.40;5.78;;;25.80;67.50;;;;;;4986575;28;20125;-49
2023/08/19 05:09:42;;;;;;;7.63;6.28;;;25.80;67.40;;;;;;4992081;28;20107;-53
2023/08/19 05:12:09;;;;;;;6.18;5.40;;;25.90;67.60;;;;;;4988891;28;20527;-53
2023/08/19 05:14:37;;;;;;;7.57;6.50;;;25.90;67.60;;;;;;4988778;28;20531;-52
2023/08/19 05:17:04;;;;;;;6.55;5.88;;;25.90;67.30;;;;;;4988135;28;20061;-52
2023/08/19 05:19:33;;;;;;;7.40;5.70;;;25.90;67.60;;;;;;4988260;28;20050;-48
2023/08/19 05:22:02;;;;;;;;;;;25.90;67.70;;;;;;4988551;28;20125;-49
2023/08/19 05:24:32;;;;;;;7.70;5.82;;;26.00;67.20;;;;;;4999628;28;19961;-52
2023/08/19 05:27:00;;;;;;;6.68;5.45;;;26.00;67.30;;;;;;4988946;28;20073;-52
2023/08/19 05:29:27;;;;;;;10.32;5.63;;;26.00;67.40;;;;;;5008773;28;20479;-52
2023/08/19 05:31:57;;;;;;;7.80;5.47;;;26.00;67.40;;;;;;5030611;23;20522;-53
2023/08/19 05:34:27;;;;;;;10.32;6.35;;;26.10;67.90;;;;;;4997299;28;20133;-52
2023/08/19 05:36:54;;;;;;;9.25;5.90;;;26.10;67.90;;;;;;4997385;28;20078;-51
2023/08/19 05:39:20;;;;;;;9.40;5.78;;;26.10;67.70;;;;;;4989044;28;20568;-49
2023/08/19 05:41:50;;;;;;;6.25;4.50;;;26.10;67.70;;;;;;5001878;28;20720;-52
2023/08/19 05:44:16;;;;;;;10.70;5.85;;;26.10;67.50;;;;;;4989633;28;20125;-53
2023/08/19 05:46:45;;;;;;;8.07;5.97;;;26.10;67.70;;;;;;4989689;28;20042;-49
2023/08/19 05:49:13;;;;;;;6.50;5.22;;;26.20;67.80;;;;;;4991207;28;20034;-49
2023/08/19 05:51:45;;;;;;;6.80;5.53;;;26.20;67.80;;;;;;4986512;28;20064;-50
2023/08/19 05:54:12;;;;;;;6.90;5.47;;;26.20;68.00;;;;;;4984500;28;20183;-50
2023/08/19 05:56:38;;;;;;;5.50;4.93;;;26.20;67.90;;;;;;4989883;28;20042;-48
2023/08/19 05:59:05;;;;;;;6.15;5.47;;;26.20;67.60;;;;;;4991928;28;20496;-52
2023/08/19 06:01:38;;;;;;;8.23;5.22;;;26.30;67.60;;;;;;4989817;28;20042;-51
2023/08/19 06:04:08;;;;;;;5.70;5.20;;;26.30;68.00;;;;;;4989601;28;20408;-51
2023/08/19 06:06:34;;;;;;;7.82;5.22;;;26.30;67.80;;;;;;4990007;28;20065;-50
2023/08/19 06:09:02;;;;;;;9.32;5.32;;;26.40;67.90;;;;;;4994458;28;20452;-49
2023/08/19 06:11:32;;;;;;;6.43;5.20;;;26.40;68.00;;;;;;4990594;28;20039;-53
2023/08/19 06:14:08;;;;;;;9.88;5.47;;;26.40;68.00;;;;;;4989447;28;20057;-54
2023/08/19 06:16:40;;;;;;;9.60;4.97;;;26.40;67.80;;;;;;4990275;28;20039;-49
2023/08/19 06:19:06;;;;;;;6.40;5.03;;;26.50;68.00;;;;;;4991162;28;20035;-53
2023/08/19 06:21:39;;;;;;;6.45;5.00;;;26.50;68.00;;;;;;4989672;28;20096;-54
2023/08/19 06:24:06;;;;;;;9.75;5.10;;;26.50;66.80;;;;;;4989780;28;20074;-52
2023/08/19 06:26:36;;;;;;;4.68;4.28;;;26.60;67.30;;;;;;4988849;28;20042;-53
2023/08/19 06:29:05;;;;;;;8.23;5.25;;;26.60;67.30;;;;;;4987483;28;20052;-52
2023/08/19 06:31:37;;;;;;;5.32;4.72;;;26.70;67.50;;;;;;4988317;28;20061;-54
2023/08/19 06:34:04;;;;;;;5.95;4.72;;;26.70;67.20;;;;;;4988735;28;20070;-54
2023/08/19 06:36:33;;;;;;;6.40;5.05;;;26.70;67.80;;;;;;4973163;28;20046;-55
2023/08/19 06:39:09;;;;;;;7.50;4.93;;;26.70;67.90;;;;;;4987305;28;20559;-53
2023/08/19 06:41:39;;;;;;;10.75;4.75;;;26.80;68.10;;;;;;4991072;28;20558;-53
2023/08/19 06:44:07;;;;;;;6.22;4.65;;;26.90;68.10;;;;;;4988227;28;20109;-50
2023/08/19 06:46:35;;;;;;;7.10;5.13;;;26.90;67.60;;;;;;4989564;28;20122;-53
2023/08/19 06:49:03;;;;;;;5.53;4.88;;;27.00;67.90;;;;;;4991398;28;20049;-50
2023/08/19 06:51:33;;;;;;;5.07;4.53;;;27.00;66.80;;;;;;4991813;28;20101;-49
2023/08/19 06:54:00;;;;;;;6.72;4.82;;;27.10;66.70;;;;;;4991950;28;20584;-53
2023/08/19 06:56:33;;;;;;;6.35;4.68;;;27.10;67.20;;;;;;4989724;28;20054;-52
2023/08/19 06:59:20;;;;;;;5.85;4.82;;;27.20;66.20;;;;;;4989490;28;20100;-54
2023/08/19 07:01:51;;;;;;;5.18;4.43;;;27.30;65.50;;;;;;4988533;28;20664;-53
2023/08/19 07:04:22;;;;;;;4.90;4.45;;;27.40;64.70;;;;;;4992324;28;20500;-51
2023/08/19 07:06:51;;;;;;;6.32;4.68;;;27.50;64.70;;;;;;4985696;28;20042;-53
2023/08/19 07:09:21;;;;;;;6.85;4.93;;;27.60;64.80;;;;;;4988380;28;20447;-52
2023/08/19 07:11:50;;;;;;;6.22;4.50;;;27.60;64.20;;;;;;4989129;28;20046;-55
2023/08/19 07:14:17;;;;;;;6.60;4.30;;;27.70;64.00;;;;;;4972935;28;20046;-54
2023/08/19 07:16:45;;;;;;;4.25;3.85;;;27.80;63.90;;;;;;4992541;28;20519;-51
2023/08/19 07:19:15;;;;;;;6.85;4.88;;;27.80;64.00;;;;;;4991283;28;20073;-52
2023/08/19 07:21:44;;;;;;;8.20;4.57;;;27.90;63.10;;;;;;4986799;28;20119;-53
2023/08/19 07:24:11;;;;;;;6.60;4.82;;;27.90;63.20;;;;;;4983417;28;20101;-54
2023/08/19 07:26:40;;;;;;;6.47;4.90;;;28.00;63.20;;;;;;4988939;28;20070;-53
2023/08/19 07:29:07;;;;;;;6.32;4.03;;;28.00;63.80;;;;;;4988660;28;20129;-50
2023/08/19 07:31:34;;;;;;;7.35;4.55;;;28.10;64.30;;;;;;4995272;28;20042;-52
2023/08/19 07:34:01;;;;;;;5.40;4.50;;;28.10;64.00;;;;;;4989838;28;20117;-52
2023/08/19 07:36:28;;;;;;;4.82;4.28;;;28.10;63.30;;;;;;4988641;28;20066;-55
2023/08/19 07:38:55;;;;;;;5.28;4.22;;;28.20;63.90;;;;;;4996508;28;20188;-52
2023/08/19 07:41:21;;;;;;;12.05;4.70;;;28.30;64.30;;;;;;4988200;28;20042;-51
2023/08/19 07:43:48;;;;;;;9.07;5.65;;;28.30;64.10;;;;;;4986090;28;20073;-53
2023/08/19 07:46:15;;;;;;;6.30;4.32;;;28.40;63.20;;;;;;4991956;28;20089;-55
2023/08/19 07:48:43;;;;;;;8.00;4.00;;;28.50;63.30;;;;;;4985846;28;20053;-52
2023/08/19 07:51:11;;;;;;;6.38;4.18;;;28.60;63.00;;;;;;4991609;28;20575;-55
2023/08/19 07:53:38;;;;;;;6.63;4.53;;;28.70;62.30;;;;;;4990512;28;20116;-52
2023/08/19 07:56:08;;;;;;;6.40;4.22;;;28.70;62.20;;;;;;4994478;28;20093;-51
2023/08/19 07:58:36;;;;;;;5.13;4.53;;;28.80;62.50;;;;;;4985545;28;20101;-55
2023/08/19 08:01:03;;;;;;;4.57;3.92;;;28.90;61.80;;;;;;4994627;28;20117;-52
2023/08/19 08:03:29;;;;;;;4.50;4.10;;;28.90;61.70;;;;;;4986361;28;20039;-53
2023/08/19 08:05:58;;;;;;;8.68;4.40;;;29.00;61.90;;;;;;4991385;28;20049;-52
2023/08/19 08:08:25;;;;;;;5.70;4.18;;;29.00;61.40;;;;;;4991158;28;20041;-52
2023/08/19 08:10:53;;;;;;;7.20;4.25;;;29.10;61.50;;;;;;4989384;28;20040;-55
2023/08/19 08:13:20;;;;;;;6.45;4.85;;;29.20;61.90;;;;;;4981014;28;20082;-54
2023/08/19 08:15:47;;;;;;;6.63;4.43;;;29.30;61.90;;;;;;4982645;28;20053;-54
2023/08/19 08:18:14;;;;;;;7.50;4.25;;;29.40;61.90;;;;;;4992529;28;20050;-50
2023/08/19 08:20:41;;;;;;;7.78;4.85;;;29.50;61.80;;;;;;4991834;28;20408;-51
2023/08/19 08:23:08;;;;;;;4.93;4.40;;;29.60;61.20;;;;;;4991351;28;20042;-52
2023/08/19 08:25:35;;;;;;;5.47;4.55;;;29.80;61.50;;;;;;4991156;28;20065;-53
2023/08/19 08:28:01;;;;;;;4.72;4.32;;;29.80;61.30;;;;;;4995230;28;20137;-53
2023/08/19 08:30:28;;;;;;;7.28;4.10;;;30.00;61.50;;;;;;4993110;28;20061;-53
2023/08/19 08:32:55;;;;;;;6.32;4.88;;;30.10;60.80;;;;;;4987772;28;20077;-54
2023/08/19 08:35:21;;;;;;;7.13;4.43;;;30.20;60.50;;;;;;4990383;28;20064;-48
2023/08/19 08:37:48;;;;;;;5.95;4.78;;;30.30;60.50;;;;;;4986037;28;20153;-52
2023/08/19 08:40:15;;;;;;;4.95;4.45;;;30.40;58.70;;;;;;4990656;28;20042;-52
2023/08/19 08:42:42;;;;;;;5.07;4.57;;;30.50;59.30;;;;;;4990678;28;20034;-51
2023/08/19 08:45:10;;;;;;;4.78;3.97;;;30.60;58.90;;;;;;4982508;28;20125;-52
2023/08/19 08:47:40;;;;;;;5.70;5.00;;;30.60;57.20;;;;;;4991968;28;20069;-53
2023/08/19 08:50:07;;;;;;;8.55;4.82;;;30.80;57.50;;;;;;4992085;28;20528;-53
2023/08/19 08:52:35;;;;;;;5.53;4.93;;;30.80;57.00;;;;;;4985419;28;20081;-52
2023/08/19 08:55:02;;;;;;;5.20;4.53;;;30.90;56.60;;;;;;4986945;28;20062;-53
2023/08/19 08:57:29;;;;;;;5.85;4.93;;;30.90;57.10;;;;;;4988691;28;20043;-52
2023/08/19 08:59:56;;;;;;;4.95;4.03;;;31.00;56.90;;;;;;4987066;28;20049;-54
2023/08/19 09:02:26;;;;;;;5.40;4.32;;;31.00;57.70;;;;;;4986756;28;20158;-53
2023/08/19 09:04:53;;;;;;;5.35;4.72;;;31.00;56.90;;;;;;4989158;28;20034;-53
2023/08/19 09:07:32;;;;;;;5.25;4.85;;;31.00;57.30;;;;;;4989812;28;20038;-54
2023/08/19 09:09:59;;;;;;;5.85;4.57;;;31.00;57.30;;;;;;4991215;28;20138;-54
2023/08/19 09:12:26;;;;;;;5.57;5.10;;;31.00;57.40;;;;;;4987959;28;20511;-53
2023/08/19 09:14:57;;;;;;;5.53;5.00;;;31.00;57.80;;;;;;4988271;28;20184;-53
2023/08/19 09:17:24;;;;;;;5.32;4.55;;;31.00;58.50;;;;;;4972914;28;20137;-54
2023/08/19 09:19:51;;;;;;;5.97;4.95;;;31.00;58.30;;;;;;4988204;28;20042;-53
2023/08/19 09:22:18;;;;;;;5.07;4.68;;;31.00;59.50;;;;;;4974954;28;20132;-54
2023/08/19 09:24:44;;;;;;;5.05;4.57;;;31.00;59.90;;;;;;4985111;28;20042;-55
2023/08/19 09:27:11;;;;;;;5.05;4.57;;;31.00;59.80;;;;;;4989286;28;20062;-50
2023/08/19 09:29:49;;;;;;;5.40;4.53;;;31.10;59.00;;;;;;4989670;28;20039;-53
2023/08/19 09:32:16;;;;;;;6.13;5.38;;;31.10;58.50;;;;;;4986997;28;20042;-55
2023/08/19 09:34:43;;;;;;;7.85;4.53;;;31.20;58.60;;;;;;4986894;28;20042;-54
2023/08/19 09:37:16;;;;;;;7.88;5.40;;;31.20;58.30;;;;;;4988255;28;20125;-55
2023/08/19 09:39:44;;;;;;;5.85;5.28;;;31.20;57.80;;;;;;4991103;28;20513;-52
2023/08/19 09:42:12;;;;;;;6.00;5.05;;;31.30;57.70;;;;;;4987587;28;20057;-56
2023/08/19 09:44:40;;;;;;;5.80;5.25;;;31.40;57.60;;;;;;4989696;28;20060;-54
2023/08/19 09:47:10;;;;;;;6.50;5.20;;;31.40;56.80;;;;;;4990236;28;20515;-55
2023/08/19 09:49:37;;;;;;;7.55;5.55;;;31.40;57.10;;;;;;4989919;28;20042;-53
2023/08/19 09:52:14;;;;;;;6.00;5.28;;;31.40;57.30;;;;;;4989537;28;20066;-53
2023/08/19 09:54:41;;;;;;;6.05;5.45;;;31.50;56.60;;;;;;4989908;28;20069;-55
2023/08/19 09:57:12;;;;;;;6.22;5.72;;;31.50;56.40;;;;;;4990837;28;20048;-56
2023/08/19 09:59:43;;;;;;;7.13;5.85;;;31.50;56.20;;;;;;4990401;28;20104;-54
2023/08/19 10:02:14;;;;;;;6.53;5.45;;;31.50;55.80;;;;;;4989641;28;20574;-54
2023/08/19 10:04:42;;;;;;;8.53;5.87;;;31.60;56.20;;;;;;4989628;28;20046;-54
2023/08/19 10:07:12;;;;;;;6.53;5.93;;;31.60;56.20;;;;;;4990096;28;20117;-55
2023/08/19 10:09:42;;;;;;;10.27;6.30;;;31.60;56.90;;;;;;4991420;28;20050;-55
2023/08/19 10:12:11;;;;;;;6.97;6.28;;;31.70;56.20;;;;;;4994234;28;20057;-56
2023/08/19 10:14:40;;;;;;;6.28;5.78;;;31.60;55.90;;;;;;4992886;28;20046;-54
2023/08/19 10:17:07;;;;;;;6.07;5.57;;;31.70;56.00;;;;;;4993566;28;20074;-55
2023/08/19 10:19:45;;;;;;;6.50;5.90;;;31.70;55.90;;;;;;4997994;28;20055;-53
2023/08/19 10:22:19;;;;;;;7.80;6.65;;;31.60;55.80;;;;;;4993445;28;20448;-55
2023/08/19 10:24:49;;;;;;;6.82;6.20;;;31.60;56.00;;;;;;4993627;28;20406;-55
2023/08/19 10:27:19;;;;;;;6.85;6.15;;;31.60;55.90;;;;;;4992943;28;20130;-55
2023/08/19 10:29:53;;;;;;;8.07;6.30;;;31.60;56.30;;;;;;4970739;28;20034;-53
2023/08/19 10:32:41;;;;;;;6.68;5.97;;;31.60;56.30;;;;;;4993187;28;20489;-54
2023/08/19 10:35:16;;;;;;;7.28;5.70;;;31.60;56.70;;;;;;4993212;28;20061;-53
2023/08/19 10:37:50;;;;;;;6.20;5.70;;;31.70;56.60;;;;;;4993861;28;20038;-56
2023/08/19 10:40:35;;;;;;;6.47;5.82;;;31.60;56.50;;;;;;4990749;28;20070;-52
2023/08/19 10:43:04;;;;;;;6.35;5.63;;;31.70;56.20;;;;;;4987419;28;20085;-54
2023/08/19 10:45:32;;;;;;;7.07;6.40;;;31.60;56.50;;;;;;4992968;28;20042;-54
2023/08/19 10:47:59;;;;;;;7.40;6.28;;;31.50;56.50;;;;;;4996384;28;20042;-56
2023/08/19 10:50:26;;;;;;;6.45;5.82;;;31.50;56.40;;;;;;4992250;28;20132;-54
2023/08/19 10:53:06;;;;;;;11.57;6.72;;;31.40;56.20;;;;;;4992546;28;20046;-55
2023/08/19 10:55:56;;;;;;;7.00;6.40;;;31.50;56.30;;;;;;4992724;28;20501;-52
2023/08/19 10:58:25;;;;;;;7.28;6.57;;;31.30;56.60;;;;;;4992412;28;20088;-56
2023/08/19 11:00:52;;;;;;;7.43;6.72;;;31.20;56.90;;;;;;4994817;28;20047;-55
2023/08/19 11:03:19;;;;;;;8.10;6.72;;;31.10;57.60;;;;;;4992290;28;20070;-53
2023/08/19 11:05:52;;;;;;;9.63;7.13;;;31.10;58.90;;;;;;4993186;28;20053;-55
2023/08/19 11:08:22;;;;;;;8.45;7.47;;;31.00;58.90;;;;;;4994231;28;20390;-54
2023/08/19 11:10:51;;;;;;;8.10;7.30;;;31.00;58.70;;;;;;4997616;28;20122;-55
2023/08/19 11:13:24;;;;;;;9.73;8.13;;;31.00;58.70;;;;;;4988816;28;20133;-55
2023/08/19 11:16:02;;;;;;;8.45;7.35;;;30.90;58.60;;;;;;4994803;28;20034;-54
2023/08/19 11:18:29;;;;;;;8.55;7.75;;;30.90;58.90;;;;;;4996493;28;20046;-55
2023/08/19 11:20:55;;;;;;;9.48;7.40;;;30.90;59.10;;;;;;4992629;28;20400;-50
2023/08/19 11:23:28;;;;;;;8.55;7.65;;;30.80;59.70;;;;;;4991704;28;20070;-55
2023/08/19 11:25:59;;;;;;;8.60;7.80;;;30.70;60.50;;;;;;4993417;28;20419;-54
2023/08/19 11:28:31;;;;;;;7.72;7.05;;;30.60;59.80;;;;;;4991828;28;20674;-55
2023/08/19 11:31:01;;;;;;;8.57;7.78;;;30.50;59.90;;;;;;4995772;28;20476;-53
2023/08/19 11:33:31;;;;;;;7.63;6.93;;;30.40;60.10;;;;;;4990628;28;20131;-53
2023/08/19 11:35:58;;;;;;;8.18;7.53;;;30.20;60.70;;;;;;4992979;28;20449;-54
2023/08/19 11:38:27;;;;;;;7.88;7.07;;;30.10;60.60;;;;;;4978735;28;20053;-54
2023/08/19 11:40:53;;;;;;;8.43;7.63;;;30.10;60.50;;;;;;4967887;28;20122;-55
2023/08/19 11:43:23;;;;;;;7.78;6.97;;;30.00;60.80;;;;;;4990991;28;20062;-54
2023/08/19 11:45:55;;;;;;;8.27;7.45;;;29.90;61.20;;;;;;4986996;28;20600;-54
2023/08/19 11:48:22;;;;;;;7.78;7.07;;;29.80;61.80;;;;;;4993406;28;20034;-53
2023/08/19 11:50:52;;;;;;;8.50;7.70;;;29.80;61.80;;;;;;4990428;28;20113;-53
2023/08/19 11:53:26;;;;;;;8.50;7.70;;;29.70;61.80;;;;;;4988539;28;20042;-53
2023/08/19 11:55:57;;;;;;;8.43;7.65;;;29.70;62.00;;;;;;4987547;28;20093;-53
2023/08/19 11:58:36;;;;;;;9.27;8.32;;;29.60;61.90;;;;;;4984855;28;20050;-54
2023/08/19 12:01:04;;;;;;;8.95;8.05;;;29.60;62.10;;;;;;4995302;28;20066;-55
2023/08/19 12:03:30;;;;;;;9.43;8.63;;;29.70;62.60;;;;;;4990266;28;20046;-55
2023/08/19 12:05:57;;;;;;;10.38;7.97;;;29.60;62.60;;;;;;4990820;28;20072;-52
2023/08/19 12:08:31;;;;;;;8.70;7.70;;;29.60;62.90;;;;;;4990707;28;20129;-55
2023/08/19 12:10:59;;;;;;;9.15;8.30;;;29.60;62.80;;;;;;4991481;28;20413;-54
2023/08/19 12:13:29;;;;;;;9.68;8.77;;;29.60;62.80;;;;;;4986250;28;20046;-55
2023/08/19 12:16:00;;;;;;;9.55;8.60;;;29.60;62.80;;;;;;4987693;28;20062;-55
2023/08/19 12:18:31;;;;;;;9.23;8.43;;;29.60;63.50;;;;;;4985251;28;20161;-54
2023/08/19 12:20:58;;;;;;;10.27;9.27;;;29.60;63.20;;;;;;4984815;28;20117;-55
2023/08/19 12:23:25;;;;;;;9.75;8.85;;;29.60;63.00;;;;;;4981922;28;20090;-55
2023/08/19 12:25:54;;;;;;;9.63;8.70;;;29.50;62.80;;;;;;4984978;28;20046;-55
2023/08/19 12:28:24;;;;;;;10.80;8.80;;;29.50;63.10;;;;;;4986606;28;20042;-55
2023/08/19 12:30:52;;;;;;;10.00;9.10;;;29.50;63.50;;;;;;4988493;28;20074;-55
2023/08/19 12:33:20;;;;;;;9.23;8.43;;;29.40;63.50;;;;;;4986361;28;20448;-55
2023/08/19 12:35:49;;;;;;;9.30;8.45;;;29.40;63.80;;;;;;4985951;28;20046;-55
2023/08/19 12:38:19;;;;;;;10.23;9.38;;;29.40;64.20;;;;;;4983205;28;20125;-55
2023/08/19 12:40:47;;;;;;;10.20;8.80;;;29.30;64.40;;;;;;4988593;28;20081;-54
2023/08/19 12:43:15;;;;;;;10.20;9.20;;;29.30;64.50;;;;;;4989002;28;20646;-55
2023/08/19 12:45:41;;;;;;;10.30;9.35;;;29.30;64.60;;;;;;4990312;28;20136;-55
2023/08/19 12:48:09;;;;;;;10.23;9.25;;;29.20;65.00;;;;;;4990373;28;20034;-54
2023/08/19 12:50:37;;;;;;;11.65;10.65;;;29.20;65.60;;;;;;4996613;28;20470;-55
2023/08/19 12:53:03;;;;;;;10.88;9.82;;;29.20;65.80;;;;;;4985486;28;20129;-54
2023/08/19 12:55:30;;;;;;;10.80;9.75;;;29.10;65.70;;;;;;4986997;28;20126;-55
2023/08/19 12:57:57;;;;;;;10.90;9.63;;;29.10;65.90;;;;;;4989934;28;20571;-55